createdAt,value
2018-11-12T00:01:07.435Z,13.40
2018-11-12T00:03:37.255Z,13.40
2018-11-12T00:06:07.023Z,13.40
2018-11-12T00:08:36.831Z,13.40
2018-11-12T00:11:06.668Z,13.40
2018-11-12T00:13:36.505Z,13.30
2018-11-12T00:16:06.891Z,13.30
2018-11-12T00:18:36.671Z,13.30
2018-11-12T00:21:06.449Z,13.30
2018-11-12T00:23:36.246Z,13.30
2018-11-12T00:26:06.527Z,13.30
2018-11-12T00:28:36.312Z,13.30
2018-11-12T00:31:06.456Z,13.30
2018-11-12T00:33:36.279Z,13.30
2018-11-12T00:36:06.439Z,13.30
2018-11-12T00:38:36.242Z,13.20
2018-11-12T00:41:06.031Z,13.20
2018-11-12T00:43:35.816Z,13.20
2018-11-12T00:46:05.902Z,13.30
2018-11-12T00:48:35.672Z,13.30
2018-11-12T00:51:05.760Z,13.30
2018-11-12T00:53:35.544Z,13.30
2018-11-12T00:56:06.093Z,13.30
2018-11-12T00:58:35.830Z,13.30
2018-11-12T01:01:07.656Z,13.30
2018-11-12T01:03:37.766Z,13.30
2018-11-12T01:06:07.847Z,13.30
2018-11-12T01:08:37.600Z,13.30
2018-11-12T01:11:07.359Z,13.30
2018-11-12T01:13:37.114Z,13.30
2018-11-12T01:16:07.700Z,13.30
2018-11-12T01:18:37.647Z,13.30
2018-11-12T01:21:07.728Z,13.20
2018-11-12T01:23:37.529Z,13.20
2018-11-12T01:26:07.267Z,13.20
2018-11-12T01:28:37.028Z,13.20
2018-11-12T01:31:07.153Z,13.10
2018-11-12T01:33:37.813Z,13.00
2018-11-12T01:36:07.547Z,13.00
2018-11-12T01:38:37.272Z,12.90
2018-11-12T01:41:07.020Z,12.90
2018-11-12T01:43:36.742Z,12.90
2018-11-12T01:46:06.503Z,12.90
2018-11-12T01:48:36.248Z,12.80
2018-11-12T01:51:06.483Z,12.80
2018-11-12T01:53:36.612Z,12.80
2018-11-12T01:56:07.126Z,12.80
2018-11-12T01:58:37.018Z,12.80
2018-11-12T02:01:06.770Z,12.70
2018-11-12T02:03:36.505Z,12.80
2018-11-12T02:06:06.682Z,12.80
2018-11-12T02:08:36.510Z,12.80
2018-11-12T02:11:06.439Z,12.80
2018-11-12T02:13:36.255Z,12.60
2018-11-12T02:16:07.892Z,12.60
2018-11-12T02:18:37.790Z,12.60
2018-11-12T02:21:08.231Z,12.60
2018-11-12T02:23:38.029Z,12.60
2018-11-12T02:26:08.144Z,12.50
2018-11-12T02:28:37.895Z,12.50
2018-11-12T02:31:07.656Z,12.50
2018-11-12T02:33:37.474Z,12.40
2018-11-12T02:36:07.295Z,12.40
2018-11-12T02:38:37.056Z,12.40
2018-11-12T02:41:07.331Z,12.40
2018-11-12T02:43:37.096Z,12.40
2018-11-12T02:46:06.952Z,12.30
2018-11-12T02:48:36.687Z,12.20
2018-11-12T02:51:07.403Z,12.20
2018-11-12T02:53:37.178Z,12.20
2018-11-12T02:56:06.972Z,12.20
2018-11-12T02:58:36.702Z,12.20
2018-11-12T03:01:07.071Z,12.10
2018-11-12T03:03:36.796Z,12.10
2018-11-12T03:06:06.583Z,12.10
2018-11-12T03:08:36.293Z,12.10
2018-11-12T03:11:06.169Z,12.00
2018-11-12T03:13:35.895Z,12.00
2018-11-12T03:16:06.311Z,12.00
2018-11-12T03:18:36.027Z,12.00
2018-11-12T03:21:06.272Z,12.00
2018-11-12T03:23:36.080Z,11.90
2018-11-12T03:26:05.986Z,11.90
2018-11-12T03:28:35.743Z,11.90
2018-11-12T03:31:05.868Z,11.90
2018-11-12T03:33:35.604Z,11.80
2018-11-12T03:36:05.883Z,11.80
2018-11-12T03:38:35.615Z,11.80
2018-11-12T03:41:05.376Z,11.80
2018-11-12T03:43:35.123Z,11.80
2018-11-12T03:46:05.238Z,11.80
2018-11-12T03:48:34.991Z,11.80
2018-11-12T03:51:05.095Z,11.70
2018-11-12T03:53:34.820Z,11.70
2018-11-12T03:56:04.904Z,11.70
2018-11-12T03:58:34.759Z,11.70
2018-11-12T04:01:04.538Z,11.70
2018-11-12T04:03:34.230Z,11.70
2018-11-12T04:06:03.965Z,11.70
2018-11-12T04:08:33.699Z,11.60
2018-11-12T04:11:03.463Z,11.60
2018-11-12T04:13:33.220Z,11.60
2018-11-12T04:16:02.946Z,11.50
2018-11-12T04:18:32.666Z,11.50
2018-11-12T04:21:02.415Z,11.50
2018-11-12T04:23:32.125Z,11.50
2018-11-12T04:26:01.845Z,11.50
2018-11-12T04:28:31.592Z,11.40
2018-11-12T04:31:01.373Z,11.50
2018-11-12T04:33:31.111Z,11.50
2018-11-12T04:36:02.562Z,11.50
2018-11-12T04:38:33.997Z,11.50
2018-11-12T04:41:04.615Z,11.50
2018-11-12T04:43:34.372Z,11.50
2018-11-12T04:46:05.254Z,11.40
2018-11-12T04:48:35.196Z,11.30
2018-11-12T04:51:05.215Z,11.30
2018-11-12T04:53:34.988Z,11.30
2018-11-12T04:56:05.465Z,11.30
2018-11-12T04:58:35.216Z,11.30
2018-11-12T05:01:05.275Z,11.20
2018-11-12T05:03:35.015Z,11.30
2018-11-12T05:06:05.763Z,11.20
2018-11-12T05:08:35.495Z,11.20
2018-11-12T05:11:06.095Z,11.20
2018-11-12T05:13:35.838Z,11.20
2018-11-12T05:16:06.092Z,11.20
2018-11-12T05:18:35.860Z,11.20
2018-11-12T05:21:06.210Z,11.20
2018-11-12T05:23:35.988Z,11.20
2018-11-12T05:26:05.759Z,11.10
2018-11-12T05:28:35.595Z,11.10
2018-11-12T05:31:05.420Z,11.10
2018-11-12T05:33:35.182Z,11.10
2018-11-12T05:36:05.100Z,11.20
2018-11-12T05:38:34.863Z,11.30
2018-11-12T05:41:04.718Z,11.20
2018-11-12T05:43:34.459Z,11.30
2018-11-12T05:46:04.186Z,11.30
2018-11-12T05:48:33.992Z,11.40
2018-11-12T05:51:03.745Z,11.30
2018-11-12T05:53:33.600Z,11.30
2018-11-12T05:56:03.348Z,11.30
2018-11-12T05:58:33.103Z,11.30
2018-11-12T06:01:02.834Z,11.20
2018-11-12T06:03:32.571Z,11.20
2018-11-12T06:06:02.286Z,11.20
2018-11-12T06:08:32.027Z,11.10
2018-11-12T06:11:01.775Z,11.10
2018-11-12T06:13:31.491Z,11.10
2018-11-12T06:16:01.227Z,11.10
2018-11-12T06:18:30.952Z,11.10
2018-11-12T06:21:00.679Z,11.10
2018-11-12T06:23:30.426Z,11.00
2018-11-12T06:26:00.143Z,11.00
2018-11-12T06:28:29.907Z,11.00
2018-11-12T06:30:59.724Z,10.90
2018-11-12T06:33:29.658Z,11.00
2018-11-12T06:35:59.399Z,11.00
2018-11-12T06:38:29.144Z,11.00
2018-11-12T06:40:58.867Z,11.00
2018-11-12T06:43:28.588Z,11.10
2018-11-12T06:45:58.284Z,11.30
2018-11-12T06:48:28.041Z,11.40
2018-11-12T06:50:57.796Z,11.40
2018-11-12T06:53:27.595Z,11.60
2018-11-12T06:55:57.549Z,11.70
2018-11-12T06:58:27.283Z,11.80
2018-11-12T07:00:57.260Z,11.80
2018-11-12T07:03:27.183Z,11.70
2018-11-12T07:05:56.899Z,11.60
2018-11-12T07:08:26.652Z,11.70
2018-11-12T07:10:56.347Z,11.80
2018-11-12T07:13:26.087Z,11.80
2018-11-12T07:15:55.998Z,11.80
2018-11-12T07:18:25.750Z,11.80
2018-11-12T07:20:55.588Z,11.70
2018-11-12T07:23:25.346Z,11.70
2018-11-12T07:25:55.092Z,11.80
2018-11-12T07:28:24.844Z,11.80
2018-11-12T07:30:55.016Z,11.90
2018-11-12T07:33:24.863Z,12.00
2018-11-12T07:35:54.568Z,11.90
2018-11-12T07:38:24.310Z,12.00
2018-11-12T07:40:54.032Z,12.00
2018-11-12T07:43:23.767Z,12.00
2018-11-12T07:45:53.479Z,12.10
2018-11-12T07:48:23.257Z,12.10
2018-11-12T07:50:52.975Z,12.10
2018-11-12T07:53:22.731Z,12.10
2018-11-12T07:55:52.451Z,12.10
2018-11-12T07:58:22.207Z,12.10
2018-11-12T08:00:51.932Z,12.20
2018-11-12T08:03:21.720Z,12.20
2018-11-12T08:05:51.648Z,12.30
2018-11-12T08:08:21.411Z,12.40
2018-11-12T08:10:51.177Z,12.50
2018-11-12T08:13:20.927Z,12.50
2018-11-12T08:15:50.659Z,12.60
2018-11-12T08:18:20.423Z,12.60
2018-11-12T08:20:50.366Z,12.70
2018-11-12T08:23:20.224Z,12.80
2018-11-12T08:25:49.980Z,12.80
2018-11-12T08:28:19.715Z,12.90
2018-11-12T08:30:49.447Z,13.00
2018-11-12T08:33:19.172Z,13.10
2018-11-12T08:35:48.909Z,13.10
2018-11-12T08:38:18.701Z,13.20
2018-11-12T08:40:48.501Z,13.20
2018-11-12T08:43:18.380Z,13.40
2018-11-12T08:45:48.131Z,13.50
2018-11-12T08:48:17.919Z,13.60
2018-11-12T08:50:47.664Z,13.70
2018-11-12T08:53:17.413Z,13.80
2018-11-12T08:55:47.199Z,13.80
2018-11-12T08:58:17.992Z,13.70
2018-11-12T09:00:47.078Z,13.90
2018-11-12T09:03:16.998Z,13.90
2018-11-12T09:05:50.762Z,14.00
2018-11-12T09:08:20.648Z,14.20
2018-11-12T09:10:50.419Z,14.30
2018-11-12T09:13:20.151Z,14.30
2018-11-12T09:15:49.961Z,14.40
2018-11-12T09:18:19.820Z,14.60
2018-11-12T09:20:49.623Z,14.70
2018-11-12T09:23:19.347Z,14.70
2018-11-12T09:25:49.092Z,14.90
2018-11-12T09:28:18.830Z,14.90
2018-11-12T09:30:49.866Z,14.90
2018-11-12T09:33:18.516Z,14.90
2018-11-12T09:35:48.467Z,15.10
2018-11-12T09:38:18.231Z,15.20
2018-11-12T09:40:48.252Z,15.20
2018-11-12T09:43:18.011Z,15.20
2018-11-12T09:45:47.957Z,15.20
2018-11-12T09:48:17.683Z,15.20
2018-11-12T09:50:47.423Z,15.20
2018-11-12T09:53:17.151Z,15.20
2018-11-12T09:55:46.952Z,15.30
2018-11-12T09:58:16.711Z,15.40
2018-11-12T10:00:46.739Z,15.40
2018-11-12T10:03:21.582Z,15.40
2018-11-12T10:05:52.272Z,15.50
2018-11-12T10:08:22.335Z,15.50
2018-11-12T10:10:56.157Z,15.50
2018-11-12T10:13:28.181Z,15.60
2018-11-12T10:15:59.997Z,15.70
2018-11-12T10:18:26.303Z,15.80
2018-11-12T10:20:56.195Z,15.80
2018-11-12T10:23:25.920Z,15.90
2018-11-12T10:25:55.651Z,16.00
2018-11-12T10:28:25.371Z,16.10
2018-11-12T10:30:55.112Z,16.30
2018-11-12T10:33:24.814Z,16.40
2018-11-12T10:35:54.551Z,16.40
2018-11-12T10:38:24.280Z,16.40
2018-11-12T10:40:54.071Z,16.50
2018-11-12T10:43:23.952Z,16.50
2018-11-12T10:45:53.700Z,16.50
2018-11-12T10:48:23.521Z,16.60
2018-11-12T10:50:56.379Z,16.80
2018-11-12T10:53:23.431Z,16.90
2018-11-12T10:55:53.480Z,17.00
2018-11-12T10:58:23.315Z,17.10
2018-11-12T11:00:58.464Z,17.20
2018-11-12T11:03:33.690Z,17.20
2018-11-12T11:06:03.440Z,17.20
2018-11-12T11:08:33.160Z,17.10
2018-11-12T11:11:02.917Z,17.00
2018-11-12T11:13:32.634Z,17.10
2018-11-12T11:16:02.385Z,17.10
2018-11-12T11:18:32.110Z,17.20
2018-11-12T11:21:01.857Z,17.20
2018-11-12T11:23:31.789Z,17.20
2018-11-12T11:26:01.570Z,17.30
2018-11-12T11:28:31.306Z,17.20
2018-11-12T11:31:01.089Z,17.30
2018-11-12T11:33:31.034Z,17.40
2018-11-12T11:36:00.764Z,17.50
2018-11-12T11:38:30.510Z,17.50
2018-11-12T11:41:00.237Z,17.60
2018-11-12T11:43:29.984Z,17.70
2018-11-12T11:45:59.757Z,17.70
2018-11-12T11:48:29.709Z,17.70
2018-11-12T11:50:59.437Z,17.70
2018-11-12T11:53:29.196Z,17.80
2018-11-12T11:55:58.902Z,17.90
2018-11-12T11:58:28.646Z,17.90
2018-11-12T12:00:58.376Z,17.80
2018-11-12T12:03:28.339Z,17.80
2018-11-12T12:05:58.081Z,17.80
2018-11-12T12:08:27.954Z,17.80
2018-11-12T12:10:57.675Z,17.90
2018-11-12T12:13:27.411Z,17.90
2018-11-12T12:15:57.135Z,17.90
2018-11-12T12:18:26.870Z,17.80
2018-11-12T12:20:56.687Z,17.80
2018-11-12T12:23:26.660Z,17.80
2018-11-12T12:25:56.397Z,17.80
2018-11-12T12:28:26.334Z,17.80
2018-11-12T12:30:56.068Z,17.70
2018-11-12T12:33:25.811Z,17.70
2018-11-12T12:35:55.564Z,17.70
2018-11-12T12:38:25.504Z,17.60
2018-11-12T12:40:55.223Z,17.60
2018-11-12T12:43:24.987Z,17.60
2018-11-12T12:45:54.736Z,17.50
2018-11-12T12:48:24.651Z,17.50
2018-11-12T12:50:54.372Z,17.50
2018-11-12T12:53:24.100Z,17.50
2018-11-12T12:55:53.960Z,17.50
2018-11-12T12:58:23.842Z,17.60
2018-11-12T13:00:53.731Z,17.60
2018-11-12T13:03:23.476Z,17.60
2018-11-12T13:05:53.195Z,17.70
2018-11-12T13:08:22.917Z,17.70
2018-11-12T13:10:52.743Z,17.70
2018-11-12T13:13:22.499Z,17.80
2018-11-12T13:15:52.411Z,17.80
2018-11-12T13:18:22.255Z,17.80
2018-11-12T13:20:52.143Z,17.80
2018-11-12T13:23:22.045Z,17.80
2018-11-12T13:25:51.766Z,17.70
2018-11-12T13:28:21.519Z,17.70
2018-11-12T13:30:51.245Z,17.70
2018-11-12T13:33:20.992Z,17.70
2018-11-12T13:35:50.727Z,17.70
2018-11-12T13:38:20.455Z,17.80
2018-11-12T13:40:50.225Z,17.70
2018-11-12T13:43:19.988Z,17.80
2018-11-12T13:45:49.721Z,17.80
2018-11-12T13:48:19.475Z,17.70
2018-11-12T13:50:49.209Z,17.60
2018-11-12T13:53:18.984Z,17.50
2018-11-12T13:55:48.743Z,17.50
2018-11-12T13:58:18.563Z,17.50
2018-11-12T14:00:48.317Z,17.40
2018-11-12T14:03:18.066Z,17.40
2018-11-12T14:05:47.827Z,17.40
2018-11-12T14:08:17.560Z,17.40
2018-11-12T14:10:47.311Z,17.40
2018-11-12T14:13:17.035Z,17.40
2018-11-12T14:15:46.816Z,17.30
2018-11-12T14:18:16.542Z,17.20
2018-11-12T14:20:46.380Z,17.20
2018-11-12T14:23:16.273Z,17.20
2018-11-12T14:25:46.024Z,17.10
2018-11-12T14:28:15.780Z,17.10
2018-11-12T14:30:45.759Z,17.10
2018-11-12T14:33:15.482Z,17.10
2018-11-12T14:35:45.466Z,17.10
2018-11-12T14:38:15.204Z,17.00
2018-11-12T14:40:44.954Z,16.90
2018-11-12T14:43:14.680Z,16.90
2018-11-12T14:45:44.408Z,16.90
2018-11-12T14:48:14.135Z,16.90
2018-11-12T14:50:44.024Z,16.80
2018-11-12T14:53:13.759Z,16.80
2018-11-12T14:55:43.827Z,16.70
2018-11-12T14:58:13.591Z,16.70
2018-11-12T15:00:43.360Z,16.70
2018-11-12T15:03:13.270Z,16.60
2018-11-12T15:05:43.558Z,16.50
2018-11-12T15:08:13.677Z,16.50
2018-11-12T15:10:43.893Z,16.40
2018-11-12T15:13:14.388Z,16.40
2018-11-12T15:15:44.411Z,16.30
2018-11-12T15:18:14.360Z,16.20
2018-11-12T15:20:44.677Z,16.20
2018-11-12T15:23:14.427Z,16.10
2018-11-12T15:25:44.170Z,16.10
2018-11-12T15:28:14.087Z,16.00
2018-11-12T15:30:44.098Z,16.00
2018-11-12T15:33:14.198Z,15.90
2018-11-12T15:35:43.943Z,15.80
2018-11-12T15:38:13.752Z,15.80
2018-11-12T15:40:43.803Z,15.70
2018-11-12T15:43:13.675Z,15.70
2018-11-12T15:45:43.547Z,15.70
2018-11-12T15:48:13.950Z,15.60
2018-11-12T15:50:44.183Z,15.60
2018-11-12T15:53:14.427Z,15.60
2018-11-12T15:55:44.339Z,15.50
2018-11-12T15:58:14.370Z,15.50
2018-11-12T16:00:44.534Z,15.50
2018-11-12T16:03:15.967Z,15.50
2018-11-12T16:05:45.772Z,15.40
2018-11-12T16:08:15.634Z,15.40
2018-11-12T16:10:45.404Z,15.30
2018-11-12T16:13:15.125Z,15.20
2018-11-12T16:15:44.872Z,15.20
2018-11-12T16:18:14.595Z,15.10
2018-11-12T16:20:44.338Z,15.10
2018-11-12T16:23:14.065Z,15.10
2018-11-12T16:25:43.807Z,15.00
2018-11-12T16:28:13.524Z,15.00
2018-11-12T16:30:43.260Z,14.90
2018-11-12T16:33:12.970Z,14.90
2018-11-12T16:35:42.713Z,14.90
2018-11-12T16:38:12.454Z,14.80
2018-11-12T16:40:42.206Z,14.80
2018-11-12T16:43:11.931Z,14.70
2018-11-12T16:45:41.687Z,14.70
2018-11-12T16:48:11.775Z,14.60
2018-11-12T16:50:41.520Z,14.60
2018-11-12T16:53:11.232Z,14.50
2018-11-12T16:55:40.960Z,14.50
2018-11-12T16:58:10.669Z,14.40
2018-11-12T17:00:40.402Z,14.40
2018-11-12T17:03:10.122Z,14.30
2018-11-12T17:05:39.850Z,14.30
2018-11-12T17:08:09.549Z,14.20
2018-11-12T17:10:39.288Z,14.20
2018-11-12T17:13:09.141Z,14.20
2018-11-12T17:15:38.977Z,14.20
2018-11-12T17:18:08.776Z,14.20
2018-11-12T17:20:38.558Z,14.20
2018-11-12T17:23:08.293Z,14.10
2018-11-12T17:25:38.442Z,14.10
2018-11-12T17:28:08.203Z,14.00
2018-11-12T17:30:37.957Z,14.00
2018-11-12T17:33:07.895Z,13.90
2018-11-12T17:35:37.617Z,13.90
2018-11-12T17:38:07.367Z,13.80
2018-11-12T17:40:37.079Z,13.70
2018-11-12T17:43:06.863Z,13.60
2018-11-12T17:45:36.640Z,13.60
2018-11-12T17:48:06.699Z,13.60
2018-11-12T17:50:36.416Z,13.50
2018-11-12T17:53:06.546Z,13.50
2018-11-12T17:55:36.266Z,13.40
2018-11-12T17:58:06.023Z,13.30
2018-11-12T18:00:36.843Z,13.30
2018-11-12T18:03:07.196Z,13.20
2018-11-12T18:05:36.918Z,13.20
2018-11-12T18:08:06.892Z,13.20
2018-11-12T18:10:36.756Z,13.20
2018-11-12T18:13:06.536Z,13.10
2018-11-12T18:15:36.475Z,13.10
2018-11-12T18:18:06.674Z,13.00
2018-11-12T18:20:36.450Z,13.00
2018-11-12T18:23:06.652Z,13.00
2018-11-12T18:25:36.649Z,13.00
2018-11-12T18:28:06.797Z,13.00
2018-11-12T18:30:36.704Z,13.00
2018-11-12T18:33:07.334Z,13.00
2018-11-12T18:35:37.196Z,13.00
2018-11-12T18:38:07.386Z,12.90
2018-11-12T18:40:37.563Z,13.00
2018-11-12T18:43:07.417Z,12.90
2018-11-12T18:45:37.432Z,12.90
2018-11-12T18:48:07.288Z,12.90
2018-11-12T18:50:37.090Z,12.90
2018-11-12T18:53:06.872Z,12.90
2018-11-12T18:55:36.608Z,12.90
2018-11-12T18:58:06.376Z,13.00
2018-11-12T19:00:36.101Z,13.00
2018-11-12T19:03:06.113Z,13.00
2018-11-12T19:05:35.827Z,13.00
2018-11-12T19:08:05.724Z,13.00
2018-11-12T19:10:35.495Z,13.00
2018-11-12T19:13:05.413Z,13.00
2018-11-12T19:15:36.577Z,13.00
2018-11-12T19:18:10.421Z,13.00
2018-11-12T19:20:40.151Z,13.00
2018-11-12T19:23:09.928Z,13.00
2018-11-12T19:25:39.655Z,13.00
2018-11-12T19:28:09.387Z,13.10
2018-11-12T19:30:39.094Z,13.10
2018-11-12T19:33:08.825Z,13.10
2018-11-12T19:35:38.536Z,13.10
2018-11-12T19:38:08.291Z,13.20
2018-11-12T19:40:38.101Z,13.20
2018-11-12T19:43:08.033Z,13.10
2018-11-12T19:45:37.782Z,13.20
2018-11-12T19:48:07.664Z,13.20
2018-11-12T19:50:37.449Z,13.20
2018-11-12T19:53:07.188Z,13.20
2018-11-12T19:55:36.930Z,13.20
2018-11-12T19:58:07.070Z,13.30
2018-11-12T20:00:36.864Z,13.20
2018-11-12T20:03:06.679Z,13.30
2018-11-12T20:05:36.388Z,13.30
2018-11-12T20:08:06.266Z,13.30
2018-11-12T20:10:36.160Z,13.30
2018-11-12T20:13:06.268Z,13.30
2018-11-12T20:15:36.121Z,13.30
2018-11-12T20:18:06.515Z,13.30
2018-11-12T20:20:36.325Z,13.30
2018-11-12T20:23:06.450Z,13.30
2018-11-12T20:25:36.219Z,13.30
2018-11-12T20:28:06.070Z,13.40
2018-11-12T20:30:39.494Z,13.40
2018-11-12T20:33:09.398Z,13.40
2018-11-12T20:35:39.114Z,13.50
2018-11-12T20:38:08.904Z,13.50
2018-11-12T20:40:38.640Z,13.40
2018-11-12T20:43:08.419Z,13.40
2018-11-12T20:45:38.178Z,13.40
2018-11-12T20:48:08.043Z,13.40
2018-11-12T20:50:37.931Z,13.50
2018-11-12T20:53:07.763Z,13.50
2018-11-12T20:55:37.584Z,13.40
2018-11-12T20:58:07.539Z,13.40
2018-11-12T21:00:37.489Z,13.40
2018-11-12T21:03:07.220Z,13.30
2018-11-12T21:05:36.991Z,13.30
2018-11-12T21:08:06.921Z,13.30
2018-11-12T21:10:36.685Z,13.30
2018-11-12T21:13:06.418Z,13.30
2018-11-12T21:15:36.150Z,13.30
2018-11-12T21:18:05.987Z,13.30
2018-11-12T21:20:35.734Z,13.30
2018-11-12T21:23:05.885Z,13.30
2018-11-12T21:25:36.007Z,13.30
2018-11-12T21:28:05.952Z,13.30
2018-11-12T21:30:35.831Z,13.20
2018-11-12T21:33:05.587Z,13.10
2018-11-12T21:35:35.334Z,13.20
2018-11-12T21:38:05.438Z,13.20
2018-11-12T21:40:35.193Z,13.20
2018-11-12T21:43:05.006Z,13.20
2018-11-12T21:45:34.929Z,13.30
2018-11-12T21:48:05.239Z,13.30
2018-11-12T21:50:35.027Z,13.30
2018-11-12T21:53:04.784Z,13.30
2018-11-12T21:55:34.743Z,13.30
2018-11-12T21:58:04.695Z,13.20
2018-11-12T22:00:34.750Z,13.20
2018-11-12T22:03:05.345Z,13.20
2018-11-12T22:05:35.134Z,13.20
2018-11-12T22:08:05.956Z,13.20
2018-11-12T22:10:35.751Z,13.20
2018-11-12T22:13:05.883Z,13.20
2018-11-12T22:15:35.648Z,13.20
2018-11-12T22:18:06.156Z,13.10
2018-11-12T22:20:35.932Z,13.10
2018-11-12T22:23:05.827Z,13.20
2018-11-12T22:25:35.590Z,13.20
2018-11-12T22:28:05.644Z,13.20
2018-11-12T22:30:35.584Z,13.20
2018-11-12T22:33:05.420Z,13.20
2018-11-12T22:35:35.175Z,13.20
2018-11-12T22:38:05.336Z,13.30
2018-11-12T22:40:35.082Z,13.30
2018-11-12T22:43:04.896Z,13.30
2018-11-12T22:45:40.173Z,13.30
2018-11-12T22:48:09.914Z,13.30
2018-11-12T22:50:39.650Z,13.30
2018-11-12T22:53:09.383Z,13.30
2018-11-12T22:55:39.127Z,13.30
2018-11-12T22:58:08.880Z,13.30
2018-11-12T23:00:40.626Z,13.40
2018-11-12T23:03:10.403Z,13.40
2018-11-12T23:05:40.543Z,13.30
2018-11-12T23:08:10.278Z,13.40
2018-11-12T23:10:40.033Z,13.40
2018-11-12T23:13:09.742Z,13.40
2018-11-12T23:15:39.507Z,13.40
2018-11-12T23:18:09.223Z,13.40
2018-11-12T23:20:38.987Z,13.40
2018-11-12T23:23:08.774Z,13.40
2018-11-12T23:25:38.518Z,13.40
2018-11-12T23:28:08.263Z,13.40
2018-11-12T23:30:38.016Z,13.40
2018-11-12T23:33:07.847Z,13.30
2018-11-12T23:35:37.598Z,13.30
2018-11-12T23:38:07.371Z,13.30
2018-11-12T23:40:37.091Z,13.30
2018-11-12T23:43:06.859Z,13.30
2018-11-12T23:45:36.570Z,13.30
2018-11-12T23:48:06.711Z,13.20
2018-11-12T23:50:36.459Z,13.30
2018-11-12T23:53:06.245Z,13.30
2018-11-12T23:55:35.987Z,13.30
2018-11-12T23:58:05.792Z,13.40
